createdAt,value
2023-02-06T00:01:50.272Z,4.16
2023-02-06T00:04:17.411Z,4.17
2023-02-06T00:06:43.924Z,4.15
2023-02-06T00:09:11.115Z,4.15
2023-02-06T00:11:37.949Z,4.14
2023-02-06T00:14:04.736Z,4.14
2023-02-06T00:16:33.989Z,4.16
2023-02-06T00:19:01.375Z,4.17
2023-02-06T00:21:29.114Z,4.17
2023-02-06T00:23:58.717Z,4.16
2023-02-06T00:26:26.219Z,4.14
2023-02-06T00:28:53.464Z,4.12
2023-02-06T00:31:20.228Z,4.11
2023-02-06T00:33:47.421Z,4.07
2023-02-06T00:36:15.160Z,4.05
2023-02-06T00:38:42.040Z,4.03
2023-02-06T00:41:08.756Z,4.01
2023-02-06T00:43:35.418Z,4.00
2023-02-06T00:46:02.145Z,4.00
2023-02-06T00:48:28.799Z,3.99
2023-02-06T00:50:55.423Z,3.99
2023-02-06T00:53:22.082Z,3.96
2023-02-06T00:55:48.679Z,3.95
2023-02-06T00:58:15.449Z,3.95
2023-02-06T01:00:42.032Z,3.95
2023-02-06T01:03:08.796Z,3.95
2023-02-06T01:05:35.700Z,3.96
2023-02-06T01:08:04.320Z,3.98
2023-02-06T01:10:31.187Z,3.97
2023-02-06T01:12:57.954Z,3.96
2023-02-06T01:15:24.627Z,3.97
2023-02-06T01:17:51.160Z,3.95
2023-02-06T01:20:17.933Z,3.97
2023-02-06T01:22:44.534Z,3.98
2023-02-06T01:25:11.046Z,3.98
2023-02-06T01:27:38.256Z,3.98
2023-02-06T01:30:06.757Z,3.98
2023-02-06T01:32:38.319Z,3.97
2023-02-06T01:35:06.867Z,3.97
2023-02-06T01:37:33.692Z,4.00
2023-02-06T01:40:00.347Z,3.98
2023-02-06T01:42:26.944Z,3.99
2023-02-06T01:45:21.373Z,3.98
2023-02-06T01:47:49.975Z,3.99
2023-02-06T01:50:16.614Z,3.99
2023-02-06T01:52:43.307Z,4.00
2023-02-06T01:55:10.051Z,3.99
2023-02-06T01:57:36.602Z,4.00
2023-02-06T02:00:10.146Z,4.00
2023-02-06T02:02:39.279Z,4.00
2023-02-06T02:05:09.014Z,4.01
2023-02-06T02:07:38.111Z,4.03
2023-02-06T02:10:05.442Z,4.02
2023-02-06T02:12:31.971Z,4.06
2023-02-06T02:14:59.326Z,4.03
2023-02-06T02:17:56.243Z,4.03
2023-02-06T02:20:46.698Z,4.04
2023-02-06T02:23:26.688Z,4.02
2023-02-06T02:26:02.034Z,4.02
2023-02-06T02:28:56.464Z,4.03
2023-02-06T02:32:01.298Z,4.01
2023-02-06T02:34:33.177Z,4.00
2023-02-06T02:37:08.690Z,3.99
2023-02-06T02:39:46.522Z,3.98
2023-02-06T02:42:25.783Z,3.98
2023-02-06T02:45:04.464Z,3.97
2023-02-06T02:47:39.287Z,3.96
2023-02-06T02:50:06.577Z,3.95
2023-02-06T02:52:33.113Z,3.92
2023-02-06T02:54:59.767Z,3.93
2023-02-06T02:57:30.306Z,3.89
2023-02-06T03:00:00.380Z,3.88
2023-02-06T03:02:35.009Z,3.87
2023-02-06T03:05:12.810Z,3.84
2023-02-06T03:08:10.075Z,3.85
2023-02-06T03:11:12.713Z,3.81
2023-02-06T03:13:48.968Z,3.79
2023-02-06T03:16:33.210Z,3.76
2023-02-06T03:19:13.713Z,3.74
2023-02-06T03:21:41.767Z,3.71
2023-02-06T03:24:11.262Z,3.66
2023-02-06T03:26:40.249Z,3.62
2023-02-06T03:29:12.298Z,3.60
2023-02-06T03:31:49.685Z,3.58
2023-02-06T03:34:22.508Z,3.52
2023-02-06T03:36:50.573Z,3.47
2023-02-06T03:39:17.221Z,3.47
2023-02-06T03:41:46.311Z,3.43
2023-02-06T03:44:18.669Z,3.42
2023-02-06T03:46:47.765Z,3.40
2023-02-06T03:49:16.804Z,3.37
2023-02-06T03:51:50.057Z,3.38
2023-02-06T03:54:21.142Z,3.37
2023-02-06T03:56:53.727Z,3.34
2023-02-06T03:59:21.202Z,3.31
2023-02-06T04:01:51.700Z,3.26
2023-02-06T04:04:21.920Z,3.23
2023-02-06T04:06:48.583Z,3.22
2023-02-06T04:09:15.134Z,3.21
2023-02-06T04:11:41.771Z,3.18
2023-02-06T04:14:08.239Z,3.16
2023-02-06T04:16:35.074Z,3.13
2023-02-06T04:19:01.534Z,3.10
2023-02-06T04:21:28.077Z,3.10
2023-02-06T04:23:54.533Z,3.07
2023-02-06T04:26:21.141Z,3.07
2023-02-06T04:28:47.667Z,3.08
2023-02-06T04:31:14.238Z,3.10
2023-02-06T04:33:40.926Z,3.08
2023-02-06T04:36:07.774Z,3.07
2023-02-06T04:38:34.358Z,3.03
2023-02-06T04:41:05.996Z,3.01
2023-02-06T04:43:33.394Z,2.96
2023-02-06T04:46:00.169Z,2.95
2023-02-06T04:48:26.813Z,2.92
2023-02-06T04:50:53.428Z,2.91
2023-02-06T04:53:20.195Z,2.91
2023-02-06T04:55:46.812Z,2.90
2023-02-06T04:58:13.485Z,2.92
2023-02-06T05:00:40.162Z,2.93
2023-02-06T05:03:07.068Z,2.95
2023-02-06T05:05:34.021Z,2.95
2023-02-06T05:08:00.774Z,2.95
2023-02-06T05:10:27.452Z,2.95
2023-02-06T05:12:56.075Z,2.94
2023-02-06T05:15:22.810Z,2.94
2023-02-06T05:17:49.426Z,2.96
2023-02-06T05:20:16.245Z,2.95
2023-02-06T05:22:42.796Z,2.96
2023-02-06T05:25:09.325Z,2.95
2023-02-06T05:27:35.902Z,2.93
2023-02-06T05:30:02.507Z,2.92
2023-02-06T05:32:29.208Z,2.90
2023-02-06T05:34:55.710Z,2.91
2023-02-06T05:37:22.273Z,2.92
2023-02-06T05:39:48.875Z,2.93
2023-02-06T05:42:15.424Z,2.92
2023-02-06T05:44:42.032Z,2.90
2023-02-06T05:47:08.828Z,2.88
2023-02-06T05:49:35.435Z,2.87
2023-02-06T05:52:02.369Z,2.88
2023-02-06T05:54:29.171Z,2.89
2023-02-06T05:56:58.083Z,2.90
2023-02-06T05:59:24.634Z,2.89
2023-02-06T06:01:51.407Z,2.88
2023-02-06T06:04:18.063Z,2.88
2023-02-06T06:06:44.685Z,2.88
2023-02-06T06:09:11.419Z,2.89
2023-02-06T06:11:38.453Z,2.89
2023-02-06T06:14:05.297Z,2.91
2023-02-06T06:16:32.269Z,2.91
2023-02-06T06:18:58.778Z,2.92
2023-02-06T06:21:25.288Z,2.91
2023-02-06T06:23:51.936Z,2.92
2023-02-06T06:26:18.591Z,2.91
2023-02-06T06:28:45.246Z,2.94
2023-02-06T06:31:13.026Z,2.94
2023-02-06T06:33:40.078Z,2.95
2023-02-06T06:36:08.948Z,2.96
2023-02-06T06:38:35.545Z,2.96
2023-02-06T06:41:02.418Z,2.97
2023-02-06T06:43:29.323Z,2.98
2023-02-06T06:45:55.986Z,2.98
2023-02-06T06:48:22.964Z,3.00
2023-02-06T06:50:50.746Z,2.99
2023-02-06T06:53:17.456Z,2.99
2023-02-06T06:55:44.187Z,2.99
2023-02-06T06:58:10.717Z,2.98
2023-02-06T07:00:38.753Z,2.97
2023-02-06T07:03:06.100Z,2.94
2023-02-06T07:05:33.794Z,2.96
2023-02-06T07:08:00.560Z,2.97
2023-02-06T07:10:27.201Z,2.97
2023-02-06T07:12:55.203Z,2.98
2023-02-06T07:15:22.474Z,2.98
2023-02-06T07:17:49.052Z,2.98
2023-02-06T07:20:16.025Z,2.99
2023-02-06T07:22:42.612Z,2.98
2023-02-06T07:25:09.219Z,2.97
2023-02-06T07:27:35.888Z,2.98
2023-02-06T07:30:04.002Z,2.96
2023-02-06T07:32:34.010Z,2.97
2023-02-06T07:35:00.803Z,2.99
2023-02-06T07:37:27.356Z,3.04
2023-02-06T07:39:54.184Z,3.10
2023-02-06T07:42:20.770Z,3.18
2023-02-06T07:44:47.363Z,3.27
2023-02-06T07:47:14.107Z,3.35
2023-02-06T07:49:40.728Z,3.44
2023-02-06T07:52:07.383Z,3.52
2023-02-06T07:54:34.036Z,3.62
2023-02-06T07:57:00.603Z,3.73
2023-02-06T07:59:27.156Z,3.83
2023-02-06T08:01:53.813Z,3.93
2023-02-06T08:04:20.342Z,3.99
2023-02-06T08:06:48.240Z,4.03
2023-02-06T08:09:18.677Z,4.10
2023-02-06T08:11:45.450Z,4.14
2023-02-06T08:14:12.151Z,4.18
2023-02-06T08:16:39.541Z,4.25
2023-02-06T08:19:10.807Z,4.33
2023-02-06T08:21:37.720Z,4.41
2023-02-06T08:24:05.158Z,4.47
2023-02-06T08:26:32.530Z,4.52
2023-02-06T08:29:03.268Z,4.58
2023-02-06T08:31:33.910Z,4.63
2023-02-06T08:34:00.644Z,4.69
2023-02-06T08:36:29.836Z,4.76
2023-02-06T08:38:56.414Z,4.82
2023-02-06T08:41:31.458Z,4.86
2023-02-06T08:43:59.880Z,4.94
2023-02-06T08:46:30.004Z,4.96
2023-02-06T08:48:58.998Z,4.99
2023-02-06T08:51:29.779Z,5.08
2023-02-06T08:54:03.228Z,5.12
2023-02-06T08:56:31.421Z,5.17
2023-02-06T08:59:02.458Z,5.23
2023-02-06T09:01:32.354Z,5.27
2023-02-06T09:04:02.687Z,5.33
2023-02-06T09:06:30.015Z,5.38
2023-02-06T09:08:57.770Z,5.40
2023-02-06T09:11:26.214Z,5.48
2023-02-06T09:13:56.057Z,5.57
2023-02-06T09:16:23.796Z,5.64
2023-02-06T09:18:53.963Z,5.70
2023-02-06T09:21:23.301Z,5.76
2023-02-06T09:23:54.035Z,5.80
2023-02-06T09:26:23.601Z,5.80
2023-02-06T09:28:58.463Z,5.82
2023-02-06T09:31:27.145Z,5.88
2023-02-06T09:33:53.840Z,5.94
2023-02-06T09:36:21.720Z,6.03
2023-02-06T09:38:51.069Z,6.08
2023-02-06T09:41:27.028Z,6.17
2023-02-06T09:44:04.767Z,6.12
2023-02-06T09:46:35.520Z,6.16
2023-02-06T09:49:10.723Z,6.22
2023-02-06T09:51:53.380Z,6.26
2023-02-06T09:54:34.997Z,6.21
2023-02-06T09:57:20.069Z,6.25
2023-02-06T09:59:53.389Z,6.29
2023-02-06T10:02:25.625Z,6.27
2023-02-06T10:05:42.205Z,6.32
2023-02-06T10:08:16.164Z,6.39
2023-02-06T10:10:48.028Z,6.38
2023-02-06T10:13:22.750Z,6.40
2023-02-06T10:15:55.148Z,6.44
2023-02-06T10:18:32.144Z,6.47
2023-02-06T10:21:06.230Z,6.51
2023-02-06T10:23:41.850Z,6.52
2023-02-06T10:26:18.687Z,6.54
2023-02-06T10:28:49.672Z,6.53
2023-02-06T10:31:21.656Z,6.48
2023-02-06T10:34:22.930Z,6.52
2023-02-06T10:37:11.141Z,6.57
2023-02-06T10:39:49.987Z,6.56
2023-02-06T10:42:36.565Z,6.55
2023-02-06T10:45:31.592Z,6.62
2023-02-06T10:48:26.416Z,6.69
2023-02-06T10:51:08.232Z,6.72
2023-02-06T10:53:43.077Z,6.78
2023-02-06T10:56:13.385Z,6.87
2023-02-06T10:58:51.272Z,6.92
2023-02-06T11:01:25.979Z,6.96
2023-02-06T11:04:03.556Z,6.99
2023-02-06T11:06:31.242Z,7.05
2023-02-06T11:08:58.312Z,7.02
2023-02-06T11:11:30.097Z,7.06
2023-02-06T11:14:02.818Z,7.21
2023-02-06T11:16:31.139Z,7.25
2023-02-06T11:19:01.975Z,7.32
2023-02-06T11:21:51.135Z,7.38
2023-02-06T11:24:21.107Z,7.47
2023-02-06T11:26:56.609Z,7.52
2023-02-06T11:29:29.155Z,7.57
2023-02-06T11:32:00.918Z,7.65
2023-02-06T11:34:42.564Z,7.69
2023-02-06T11:37:32.289Z,7.73
2023-02-06T11:40:19.503Z,7.73
2023-02-06T11:42:55.383Z,7.81
2023-02-06T11:45:33.430Z,7.81
2023-02-06T11:48:01.189Z,7.81
2023-02-06T11:50:34.415Z,7.83
2023-02-06T11:53:15.671Z,7.87
2023-02-06T11:55:43.141Z,7.94
2023-02-06T11:58:12.516Z,8.00
2023-02-06T12:00:57.346Z,8.04
2023-02-06T12:03:39.784Z,8.09
2023-02-06T12:06:12.904Z,8.10
2023-02-06T12:08:45.875Z,8.11
2023-02-06T12:11:20.883Z,8.14
2023-02-06T12:13:54.570Z,8.09
2023-02-06T12:16:22.927Z,8.11
2023-02-06T12:18:53.995Z,8.10
2023-02-06T12:21:30.022Z,8.09
2023-02-06T12:24:01.480Z,8.10
2023-02-06T12:26:30.400Z,8.08
2023-02-06T12:29:04.631Z,8.14
2023-02-06T12:31:43.441Z,8.25
2023-02-06T12:34:18.580Z,8.22
2023-02-06T12:36:59.036Z,8.22
2023-02-06T12:39:30.480Z,8.21
2023-02-06T12:42:25.450Z,8.24
2023-02-06T12:45:19.774Z,8.29
2023-02-06T12:47:54.107Z,8.34
2023-02-06T12:50:25.004Z,8.38
2023-02-06T12:53:10.526Z,8.43
2023-02-06T12:55:54.926Z,8.46
2023-02-06T12:58:24.902Z,8.47
2023-02-06T13:01:33.723Z,8.50
2023-02-06T13:04:05.820Z,8.54
2023-02-06T13:06:44.601Z,8.47
2023-02-06T13:09:23.309Z,8.49
2023-02-06T13:11:50.361Z,8.54
2023-02-06T13:14:24.240Z,8.59
2023-02-06T13:16:54.200Z,8.63
2023-02-06T13:22:13.063Z,8.75
2023-02-06T13:24:43.604Z,8.74
2023-02-06T13:27:16.648Z,8.79
2023-02-06T13:29:48.850Z,8.83
2023-02-06T13:32:15.471Z,8.87
2023-02-06T13:34:53.810Z,8.83
2023-02-06T13:37:30.129Z,8.77
2023-02-06T13:40:24.500Z,8.77
2023-02-06T13:43:13.857Z,8.78
2023-02-06T13:46:02.202Z,8.80
2023-02-06T13:48:59.573Z,8.77
2023-02-06T13:51:54.072Z,8.78
2023-02-06T13:54:47.502Z,8.80
2023-02-06T13:57:41.487Z,8.82
2023-02-06T14:00:18.656Z,8.85
2023-02-06T14:02:48.812Z,8.89
2023-02-06T14:05:21.257Z,8.92
2023-02-06T14:08:10.809Z,8.98
2023-02-06T14:11:08.684Z,8.97
2023-02-06T14:14:04.492Z,8.98
2023-02-06T14:16:43.559Z,9.02
2023-02-06T14:19:20.130Z,9.04
2023-02-06T14:22:28.892Z,9.06
2023-02-06T14:25:39.565Z,9.08
2023-02-06T14:28:24.394Z,9.11
2023-02-06T14:31:13.235Z,9.03
2023-02-06T14:33:42.367Z,8.99
2023-02-06T14:36:33.494Z,8.97
2023-02-06T14:39:03.754Z,8.99
2023-02-06T14:41:32.439Z,8.99
2023-02-06T14:43:59.935Z,9.00
2023-02-06T14:46:27.651Z,8.99
2023-02-06T14:48:58.409Z,9.00
2023-02-06T14:51:39.849Z,8.95
2023-02-06T14:54:32.182Z,8.97
2023-02-06T14:57:03.197Z,8.98
2023-02-06T14:59:31.152Z,9.02
2023-02-06T15:01:59.984Z,9.03
2023-02-06T15:04:30.391Z,9.05
2023-02-06T15:06:59.973Z,9.03
2023-02-06T15:09:37.779Z,9.03
2023-02-06T15:12:18.460Z,9.00
2023-02-06T15:14:55.277Z,8.98
2023-02-06T15:17:24.004Z,8.96
2023-02-06T15:19:50.573Z,8.90
2023-02-06T15:22:23.558Z,8.85
2023-02-06T15:25:04.896Z,8.84
2023-02-06T15:27:35.028Z,8.83
2023-02-06T15:30:09.894Z,8.79
2023-02-06T15:32:39.586Z,8.78
2023-02-06T15:35:20.788Z,8.79
2023-02-06T15:37:47.549Z,8.80
2023-02-06T15:40:19.114Z,8.82
2023-02-06T15:42:47.890Z,8.83
2023-02-06T15:45:23.082Z,8.81
2023-02-06T15:47:52.880Z,8.81
2023-02-06T15:50:23.890Z,8.80
2023-02-06T15:52:50.732Z,8.80
2023-02-06T15:55:26.818Z,8.81
2023-02-06T15:57:55.718Z,8.83
2023-02-06T16:00:30.104Z,8.85
2023-02-06T16:03:02.952Z,8.84
2023-02-06T16:05:35.656Z,8.83
2023-02-06T16:08:04.838Z,8.81
2023-02-06T16:10:36.801Z,8.78
2023-02-06T16:13:11.215Z,8.73
2023-02-06T16:15:39.882Z,8.70
2023-02-06T16:18:36.383Z,8.67
2023-02-06T16:21:17.179Z,8.63
2023-02-06T16:23:53.827Z,8.58
2023-02-06T16:26:26.397Z,8.53
2023-02-06T16:29:02.500Z,8.46
2023-02-06T16:31:31.951Z,8.40
2023-02-06T16:34:05.340Z,8.35
2023-02-06T16:36:32.927Z,8.30
2023-02-06T16:39:04.364Z,8.27
2023-02-06T16:41:33.633Z,8.26
2023-02-06T16:44:01.471Z,8.28
2023-02-06T16:46:29.209Z,8.29
2023-02-06T16:48:56.641Z,8.29
2023-02-06T16:51:26.189Z,8.29
2023-02-06T16:53:53.232Z,8.29
2023-02-06T16:56:21.870Z,8.26
2023-02-06T16:58:49.557Z,8.23
2023-02-06T17:01:25.804Z,8.19
2023-02-06T17:03:53.865Z,8.18
2023-02-06T17:06:24.459Z,8.18
2023-02-06T17:08:53.596Z,8.18
2023-02-06T17:11:20.278Z,8.17
2023-02-06T17:13:47.371Z,8.14
2023-02-06T17:16:21.568Z,8.13
2023-02-06T17:18:49.349Z,8.09
2023-02-06T17:21:19.858Z,8.08
2023-02-06T17:23:47.813Z,8.06
2023-02-06T17:26:21.493Z,8.04
2023-02-06T17:28:49.075Z,8.01
2023-02-06T17:31:16.687Z,7.98
2023-02-06T17:33:43.202Z,7.95
2023-02-06T17:36:18.698Z,7.90
2023-02-06T17:38:45.429Z,7.87
2023-02-06T17:41:11.900Z,7.82
2023-02-06T17:43:38.590Z,7.81
2023-02-06T17:46:06.205Z,7.81
2023-02-06T17:48:36.653Z,7.81
2023-02-06T17:51:05.016Z,7.80
2023-02-06T17:53:31.584Z,7.77
2023-02-06T17:56:02.880Z,7.73
2023-02-06T17:58:29.498Z,7.71
2023-02-06T18:00:55.997Z,7.66
2023-02-06T18:03:22.566Z,7.61
2023-02-06T18:06:03.624Z,7.58
2023-02-06T18:08:30.272Z,7.55
2023-02-06T18:10:57.497Z,7.49
2023-02-06T18:13:25.333Z,7.44
2023-02-06T18:15:57.124Z,7.41
2023-02-06T18:18:24.740Z,7.36
2023-02-06T18:20:52.313Z,7.29
2023-02-06T18:23:21.796Z,7.27
2023-02-06T18:25:48.505Z,7.17
2023-02-06T18:28:16.709Z,7.11
2023-02-06T18:30:44.605Z,7.06
2023-02-06T18:33:12.984Z,7.01
2023-02-06T18:35:41.844Z,6.95
2023-02-06T18:38:10.032Z,6.93
2023-02-06T18:40:41.446Z,6.90
2023-02-06T18:43:08.281Z,6.83
2023-02-06T18:45:37.989Z,6.74
2023-02-06T18:48:06.431Z,6.75
2023-02-06T18:50:34.235Z,6.68
2023-02-06T18:53:01.038Z,6.66
2023-02-06T18:55:27.646Z,6.65
2023-02-06T18:57:54.652Z,6.60
2023-02-06T19:00:23.827Z,6.53
2023-02-06T19:02:50.887Z,6.42
2023-02-06T19:05:18.032Z,6.41
2023-02-06T19:07:49.746Z,6.42
2023-02-06T19:10:17.074Z,6.37
2023-02-06T19:12:43.586Z,6.29
2023-02-06T19:15:11.073Z,6.27
2023-02-06T19:17:38.878Z,6.24
2023-02-06T19:20:06.126Z,6.17
2023-02-06T19:22:37.288Z,6.14
2023-02-06T19:25:10.212Z,6.10
2023-02-06T19:27:38.671Z,6.04
2023-02-06T19:30:07.874Z,5.97
2023-02-06T19:32:35.397Z,5.87
2023-02-06T19:35:02.983Z,5.86
2023-02-06T19:37:29.675Z,5.85
2023-02-06T19:39:56.207Z,5.88
2023-02-06T19:42:22.780Z,5.86
2023-02-06T19:44:55.810Z,5.83
2023-02-06T19:47:23.022Z,5.78
2023-02-06T19:49:52.753Z,5.74
2023-02-06T19:52:20.041Z,5.72
2023-02-06T19:54:47.807Z,5.71
2023-02-06T19:57:15.036Z,5.71
2023-02-06T19:59:42.051Z,5.73
2023-02-06T20:02:12.995Z,5.68
2023-02-06T20:04:39.904Z,5.62
2023-02-06T20:07:06.652Z,5.60
2023-02-06T20:09:33.221Z,5.52
2023-02-06T20:12:00.224Z,5.48
2023-02-06T20:14:28.198Z,5.47
2023-02-06T20:16:54.903Z,5.47
2023-02-06T20:19:24.881Z,5.42
2023-02-06T20:21:54.196Z,5.41
2023-02-06T20:24:23.711Z,5.38
2023-02-06T20:26:55.655Z,5.36
2023-02-06T20:29:26.880Z,5.36
2023-02-06T20:31:54.658Z,5.30
2023-02-06T20:34:21.914Z,5.25
2023-02-06T20:36:50.265Z,5.18
2023-02-06T20:39:17.463Z,5.15
2023-02-06T20:41:45.383Z,5.13
2023-02-06T20:44:13.236Z,5.05
2023-02-06T20:46:40.783Z,5.04
2023-02-06T20:49:12.612Z,5.00
2023-02-06T20:51:39.383Z,4.96
2023-02-06T20:54:06.635Z,4.97
2023-02-06T20:56:33.741Z,4.96
2023-02-06T20:59:01.194Z,4.94
2023-02-06T21:01:30.647Z,4.92
2023-02-06T21:04:02.817Z,4.90
2023-02-06T21:06:30.580Z,4.84
2023-02-06T21:09:00.047Z,4.78
2023-02-06T21:11:32.646Z,4.71
2023-02-06T21:14:01.659Z,4.62
2023-02-06T21:16:29.963Z,4.49
2023-02-06T21:18:57.627Z,4.36
2023-02-06T21:21:26.793Z,4.22
2023-02-06T21:23:55.985Z,4.13
2023-02-06T21:26:23.770Z,4.07
2023-02-06T21:28:52.423Z,3.99
2023-02-06T21:31:23.731Z,3.89
2023-02-06T21:33:51.825Z,3.79
2023-02-06T21:36:19.036Z,3.71
2023-02-06T21:38:45.496Z,3.65
2023-02-06T21:41:14.885Z,3.60
2023-02-06T21:43:42.066Z,3.54
2023-02-06T21:46:09.722Z,3.50
2023-02-06T21:48:36.991Z,3.42
2023-02-06T21:51:13.588Z,3.28
2023-02-06T21:53:40.941Z,3.16
2023-02-06T21:56:09.834Z,3.07
2023-02-06T21:58:36.920Z,2.99
2023-02-06T22:01:08.520Z,2.92
2023-02-06T22:03:35.767Z,2.84
2023-02-06T22:06:08.522Z,2.77
2023-02-06T22:08:40.410Z,2.73
2023-02-06T22:11:15.528Z,2.70
2023-02-06T22:13:42.811Z,2.67
2023-02-06T22:16:11.129Z,2.61
2023-02-06T22:18:38.290Z,2.50
2023-02-06T22:21:11.452Z,2.39
2023-02-06T22:23:38.971Z,2.32
2023-02-06T22:26:07.446Z,2.27
2023-02-06T22:28:34.429Z,2.26
2023-02-06T22:31:08.708Z,2.21
2023-02-06T22:33:35.582Z,2.17
2023-02-06T22:36:06.519Z,2.13
2023-02-06T22:38:33.817Z,2.12
2023-02-06T22:41:07.543Z,2.10
2023-02-06T22:43:36.326Z,2.08
2023-02-06T22:46:03.273Z,2.06
2023-02-06T22:48:30.253Z,2.04
2023-02-06T22:50:56.787Z,2.01
2023-02-06T22:53:29.642Z,1.99
2023-02-06T22:56:15.809Z,1.98
2023-02-06T22:58:42.654Z,1.92
2023-02-06T23:01:09.312Z,1.86
2023-02-06T23:03:36.834Z,1.82
2023-02-06T23:06:04.868Z,1.80
2023-02-06T23:08:31.430Z,1.79
2023-02-06T23:10:57.919Z,1.77
2023-02-06T23:13:24.682Z,1.75
2023-02-06T23:15:52.180Z,1.76
2023-02-06T23:18:18.894Z,1.74
2023-02-06T23:20:45.662Z,1.67
2023-02-06T23:23:12.329Z,1.63
2023-02-06T23:25:44.895Z,1.57
2023-02-06T23:28:11.645Z,1.51
2023-02-06T23:30:38.230Z,1.46
2023-02-06T23:33:05.337Z,1.43
2023-02-06T23:35:36.723Z,1.41
2023-02-06T23:38:04.058Z,1.38
2023-02-06T23:40:31.468Z,1.35
2023-02-06T23:42:58.582Z,1.34
2023-02-06T23:45:25.823Z,1.34
2023-02-06T23:47:52.780Z,1.34
2023-02-06T23:50:20.259Z,1.33
2023-02-06T23:52:47.192Z,1.31
2023-02-06T23:55:14.324Z,1.30
2023-02-06T23:57:41.527Z,1.28
